createdAt,value
2023-01-30T00:00:11.078Z,100595.27
2023-01-30T00:01:19.078Z,100601.68
2023-01-30T00:02:11.138Z,100600.77
2023-01-30T00:03:11.071Z,100597.96
2023-01-30T00:04:11.075Z,100600.79
2023-01-30T00:05:11.149Z,100606.68
2023-01-30T00:06:11.106Z,100610.02
2023-01-30T00:07:11.078Z,100613.20
2023-01-30T00:08:11.075Z,100609.54
2023-01-30T00:09:13.070Z,100609.45
2023-01-30T00:10:11.070Z,100608.10
2023-01-30T00:11:12.069Z,100611.62
2023-01-30T00:12:11.071Z,100610.05
2023-01-30T00:13:11.072Z,100605.40
2023-01-30T00:14:11.071Z,100598.88
2023-01-30T00:15:11.071Z,100603.33
2023-01-30T00:16:11.142Z,100600.11
2023-01-30T00:17:11.077Z,100598.93
2023-01-30T00:18:11.071Z,100601.29
2023-01-30T00:19:11.072Z,100602.01
2023-01-30T00:20:11.070Z,100590.57
2023-01-30T00:21:11.071Z,100591.06
2023-01-30T00:22:11.076Z,100587.20
2023-01-30T00:23:11.071Z,100592.48
2023-01-30T00:24:11.164Z,100588.59
2023-01-30T00:25:11.270Z,100589.57
2023-01-30T00:26:11.161Z,100595.29
2023-01-30T00:27:11.071Z,100592.01
2023-01-30T00:28:11.079Z,100591.16
2023-01-30T00:29:11.090Z,100595.41
2023-01-30T00:30:11.071Z,100594.24
2023-01-30T00:31:11.076Z,100597.86
2023-01-30T00:32:11.077Z,100594.59
2023-01-30T00:33:11.082Z,100597.24
2023-01-30T00:34:11.073Z,100599.69
2023-01-30T00:35:11.071Z,100601.18
2023-01-30T00:36:11.119Z,100604.13
2023-01-30T00:37:11.080Z,100601.29
2023-01-30T00:38:11.070Z,100603.86
2023-01-30T00:39:11.080Z,100599.78
2023-01-30T00:40:11.094Z,100597.27
2023-01-30T00:41:11.072Z,100595.63
2023-01-30T00:42:15.074Z,100601.39
2023-01-30T00:43:15.108Z,100596.55
2023-01-30T00:44:15.087Z,100603.44
2023-01-30T00:45:15.079Z,100599.83
2023-01-30T00:46:25.098Z,100598.92
2023-01-30T00:47:11.077Z,100592.43
2023-01-30T00:48:11.083Z,100590.76
2023-01-30T00:49:11.077Z,100590.86
2023-01-30T00:50:11.078Z,100599.36
2023-01-30T00:51:11.084Z,100614.40
2023-01-30T00:52:11.073Z,100627.08
2023-01-30T00:53:11.084Z,100636.08
2023-01-30T00:54:11.082Z,100632.59
2023-01-30T00:55:11.078Z,100638.39
2023-01-30T00:56:11.078Z,100635.10
2023-01-30T00:57:11.083Z,100638.80
2023-01-30T00:58:11.074Z,100639.86
2023-01-30T00:59:11.074Z,100647.60
2023-01-30T01:00:11.064Z,100652.12
2023-01-30T01:01:11.065Z,100657.15
2023-01-30T01:02:11.114Z,100655.58
2023-01-30T01:03:11.099Z,100654.52
2023-01-30T01:04:11.070Z,100659.51
2023-01-30T01:05:11.068Z,100650.68
2023-01-30T01:06:11.062Z,100659.81
2023-01-30T01:07:11.063Z,100659.18
2023-01-30T01:08:11.064Z,100658.74
2023-01-30T01:09:11.060Z,100650.55
2023-01-30T01:10:11.063Z,100650.07
2023-01-30T01:11:11.063Z,100650.71
2023-01-30T01:12:11.065Z,100651.57
2023-01-30T01:13:14.063Z,100648.65
2023-01-30T01:14:11.071Z,100651.75
2023-01-30T01:15:11.080Z,100654.58
2023-01-30T01:16:11.100Z,100653.46
2023-01-30T01:17:11.095Z,100647.78
2023-01-30T01:18:11.065Z,100644.50
2023-01-30T01:19:11.069Z,100644.85
2023-01-30T01:20:11.060Z,100644.10
2023-01-30T01:21:11.066Z,100655.55
2023-01-30T01:22:11.083Z,100652.21
2023-01-30T01:23:11.063Z,100648.75
2023-01-30T01:24:13.067Z,100648.63
2023-01-30T01:25:11.068Z,100651.68
2023-01-30T01:26:11.099Z,100655.18
2023-01-30T01:27:11.061Z,100645.00
2023-01-30T01:28:11.063Z,100649.83
2023-01-30T01:29:13.064Z,100648.80
2023-01-30T01:30:11.078Z,100647.72
2023-01-30T01:31:13.193Z,100656.10
2023-01-30T01:32:11.136Z,100650.41
2023-01-30T01:33:11.111Z,100656.68
2023-01-30T01:34:11.071Z,100651.04
2023-01-30T01:35:11.073Z,100649.91
2023-01-30T01:36:12.297Z,100653.74
2023-01-30T01:37:11.065Z,100655.12
2023-01-30T01:38:11.073Z,100655.33
2023-01-30T01:39:11.063Z,100658.77
2023-01-30T01:40:19.073Z,100654.62
2023-01-30T01:41:11.065Z,100654.40
2023-01-30T01:42:11.470Z,100654.09
2023-01-30T01:43:19.064Z,100655.61
2023-01-30T01:44:11.075Z,100651.59
2023-01-30T01:45:21.218Z,100651.97
2023-01-30T01:46:21.067Z,100649.46
2023-01-30T01:47:11.073Z,100650.02
2023-01-30T01:48:19.070Z,100647.74
2023-01-30T01:49:21.081Z,100648.66
2023-01-30T01:50:16.082Z,100655.59
2023-01-30T01:51:19.063Z,100655.03
2023-01-30T01:52:15.075Z,100649.61
2023-01-30T01:53:11.075Z,100652.74
2023-01-30T01:54:16.070Z,100661.77
2023-01-30T01:55:11.067Z,100661.96
2023-01-30T01:56:11.065Z,100661.19
2023-01-30T01:57:15.067Z,100665.18
2023-01-30T01:58:16.065Z,100668.69
2023-01-30T01:59:18.066Z,100670.55
2023-01-30T02:00:13.070Z,100668.34
2023-01-30T02:01:11.107Z,100668.71
2023-01-30T02:02:12.090Z,100672.44
2023-01-30T02:03:14.068Z,100673.69
2023-01-30T02:04:12.069Z,100675.61
2023-01-30T02:05:11.086Z,100677.92
2023-01-30T02:06:11.075Z,100678.64
2023-01-30T02:07:11.066Z,100684.43
2023-01-30T02:08:15.063Z,100687.69
2023-01-30T02:09:11.066Z,100689.31
2023-01-30T02:10:13.107Z,100690.59
2023-01-30T02:11:16.064Z,100696.38
2023-01-30T02:12:11.073Z,100698.97
2023-01-30T02:13:11.074Z,100698.11
2023-01-30T02:14:11.066Z,100698.17
2023-01-30T02:15:11.070Z,100696.34
2023-01-30T02:16:11.075Z,100690.19
2023-01-30T02:17:11.094Z,100690.60
2023-01-30T02:18:11.075Z,100694.28
2023-01-30T02:19:19.081Z,100694.84
2023-01-30T02:20:19.078Z,100701.43
2023-01-30T02:21:19.065Z,100706.37
2023-01-30T02:22:19.064Z,100702.94
2023-01-30T02:23:19.076Z,100702.26
2023-01-30T02:24:19.075Z,100712.00
2023-01-30T02:25:21.280Z,100716.75
2023-01-30T02:26:19.113Z,100719.78
2023-01-30T02:27:19.063Z,100715.36
2023-01-30T02:28:21.067Z,100718.79
2023-01-30T02:29:21.076Z,100722.32
2023-01-30T02:30:21.129Z,100725.26
2023-01-30T02:31:19.254Z,100720.71
2023-01-30T02:32:19.067Z,100720.46
2023-01-30T02:33:21.064Z,100723.67
2023-01-30T02:34:19.069Z,100725.47
2023-01-30T02:35:21.074Z,100726.68
2023-01-30T02:36:19.103Z,100723.45
2023-01-30T02:37:21.076Z,100724.16
2023-01-30T02:38:21.073Z,100726.84
2023-01-30T02:39:21.082Z,100722.71
2023-01-30T02:40:19.070Z,100727.03
2023-01-30T02:41:19.078Z,100723.79
2023-01-30T02:42:19.069Z,100722.57
2023-01-30T02:43:21.074Z,100725.07
2023-01-30T02:44:21.067Z,100716.61
2023-01-30T02:45:21.257Z,100726.64
2023-01-30T02:46:21.148Z,100721.99
2023-01-30T02:47:17.079Z,100716.39
2023-01-30T02:48:18.073Z,100724.70
2023-01-30T02:49:20.070Z,100723.27
2023-01-30T02:50:18.072Z,100722.50
2023-01-30T02:51:21.078Z,100725.95
2023-01-30T02:52:12.087Z,100723.29
2023-01-30T02:53:11.099Z,100718.57
2023-01-30T02:54:12.087Z,100723.87
2023-01-30T02:55:19.500Z,100718.65
2023-01-30T02:56:11.081Z,100718.74
2023-01-30T02:57:21.077Z,100708.88
2023-01-30T02:58:11.093Z,100710.14
2023-01-30T02:59:11.082Z,100714.30
2023-01-30T03:00:11.098Z,100712.44
2023-01-30T03:01:19.119Z,100715.67
2023-01-30T03:02:19.097Z,100713.44
2023-01-30T03:03:21.072Z,100714.93
2023-01-30T03:04:19.073Z,100716.91
2023-01-30T03:05:19.488Z,100716.14
2023-01-30T03:06:23.069Z,100714.83
2023-01-30T03:07:23.073Z,100722.83
2023-01-30T03:08:21.073Z,100717.01
2023-01-30T03:09:18.080Z,100718.96
2023-01-30T03:10:19.079Z,100719.41
2023-01-30T03:11:11.069Z,100722.41
2023-01-30T03:12:17.082Z,100727.21
2023-01-30T03:13:20.085Z,100729.12
2023-01-30T03:14:18.077Z,100728.71
2023-01-30T03:15:21.071Z,100729.62
2023-01-30T03:16:18.092Z,100732.20
2023-01-30T03:17:11.076Z,100729.61
2023-01-30T03:18:11.085Z,100723.17
2023-01-30T03:19:13.095Z,100728.41
2023-01-30T03:20:11.070Z,100730.18
2023-01-30T03:21:11.072Z,100736.02
2023-01-30T03:22:11.071Z,100740.54
2023-01-30T03:23:11.069Z,100737.22
2023-01-30T03:24:11.076Z,100739.82
2023-01-30T03:25:13.072Z,100742.49
2023-01-30T03:26:14.101Z,100747.15
2023-01-30T03:27:12.080Z,100744.89
2023-01-30T03:28:11.082Z,100746.27
2023-01-30T03:29:11.071Z,100745.56
2023-01-30T03:30:11.078Z,100751.76
2023-01-30T03:31:11.160Z,100748.95
2023-01-30T03:32:11.070Z,100752.97
2023-01-30T03:33:11.085Z,100748.60
2023-01-30T03:34:11.079Z,100749.55
2023-01-30T03:35:11.071Z,100753.14
2023-01-30T03:36:11.073Z,100755.16
2023-01-30T03:37:11.082Z,100756.96
2023-01-30T03:38:11.071Z,100758.66
2023-01-30T03:39:11.077Z,100753.79
2023-01-30T03:40:11.080Z,100757.22
2023-01-30T03:41:11.088Z,100756.97
2023-01-30T03:42:11.078Z,100750.29
2023-01-30T03:43:11.081Z,100758.10
2023-01-30T03:44:11.073Z,100758.22
2023-01-30T03:45:11.079Z,100759.18
2023-01-30T03:46:11.133Z,100757.01
2023-01-30T03:47:11.073Z,100751.94
2023-01-30T03:48:11.076Z,100761.62
2023-01-30T03:49:11.081Z,100760.63
2023-01-30T03:50:11.072Z,100764.10
2023-01-30T03:51:11.083Z,100776.18
2023-01-30T03:52:11.085Z,100766.36
2023-01-30T03:53:11.072Z,100764.27
2023-01-30T03:54:11.076Z,100775.67
2023-01-30T03:55:11.087Z,100774.61
2023-01-30T03:56:11.092Z,100775.40
2023-01-30T03:57:11.079Z,100778.22
2023-01-30T03:58:11.093Z,100774.31
2023-01-30T03:59:11.075Z,100774.45
2023-01-30T04:00:11.063Z,100777.98
2023-01-30T04:01:11.081Z,100780.41
2023-01-30T04:02:11.103Z,100781.31
2023-01-30T04:03:11.071Z,100776.47
2023-01-30T04:04:11.062Z,100781.25
2023-01-30T04:05:11.067Z,100788.77
2023-01-30T04:06:11.058Z,100796.60
2023-01-30T04:07:11.075Z,100792.29
2023-01-30T04:08:11.060Z,100795.36
2023-01-30T04:09:11.062Z,100797.17
2023-01-30T04:10:11.066Z,100799.22
2023-01-30T04:11:11.062Z,100796.73
2023-01-30T04:12:11.071Z,100795.56
2023-01-30T04:13:11.063Z,100803.69
2023-01-30T04:14:11.066Z,100803.46
2023-01-30T04:15:11.060Z,100808.78
2023-01-30T04:16:15.066Z,100805.38
2023-01-30T04:17:11.070Z,100810.91
2023-01-30T04:18:11.066Z,100811.39
2023-01-30T04:19:11.062Z,100810.68
2023-01-30T04:20:11.068Z,100811.63
2023-01-30T04:21:11.063Z,100809.30
2023-01-30T04:22:11.062Z,100808.41
2023-01-30T04:23:11.070Z,100809.95
2023-01-30T04:24:11.061Z,100811.46
2023-01-30T04:25:11.064Z,100811.30
2023-01-30T04:26:11.103Z,100816.87
2023-01-30T04:27:11.062Z,100818.65
2023-01-30T04:28:11.064Z,100818.28
2023-01-30T04:29:11.070Z,100815.50
2023-01-30T04:30:11.064Z,100812.87
2023-01-30T04:31:11.081Z,100811.57
2023-01-30T04:32:11.070Z,100814.12
2023-01-30T04:33:11.069Z,100815.48
2023-01-30T04:34:11.060Z,100819.48
2023-01-30T04:35:11.069Z,100820.21
2023-01-30T04:36:11.076Z,100818.14
2023-01-30T04:37:11.061Z,100818.90
2023-01-30T04:38:11.061Z,100822.09
2023-01-30T04:39:11.065Z,100820.07
2023-01-30T04:40:11.061Z,100821.49
2023-01-30T04:41:11.065Z,100818.90
2023-01-30T04:42:11.064Z,100819.69
2023-01-30T04:43:11.063Z,100819.75
2023-01-30T04:44:11.068Z,100821.73
2023-01-30T04:45:11.066Z,100822.71
2023-01-30T04:46:11.063Z,100821.66
2023-01-30T04:47:11.122Z,100826.42
2023-01-30T04:48:11.071Z,100824.69
2023-01-30T04:49:11.065Z,100829.85
2023-01-30T04:50:11.073Z,100828.09
2023-01-30T04:51:11.071Z,100830.17
2023-01-30T04:52:11.063Z,100834.80
2023-01-30T04:53:11.061Z,100838.30
2023-01-30T04:54:11.071Z,100840.38
2023-01-30T04:55:11.066Z,100836.21
2023-01-30T04:56:11.061Z,100840.97
2023-01-30T04:57:11.069Z,100839.60
2023-01-30T04:58:11.065Z,100838.41
2023-01-30T04:59:11.064Z,100837.54
2023-01-30T05:00:11.065Z,100835.20
2023-01-30T05:01:19.067Z,100833.80
2023-01-30T05:02:11.123Z,100832.60
2023-01-30T05:03:11.067Z,100831.97
2023-01-30T05:04:11.072Z,100831.69
2023-01-30T05:05:11.066Z,100830.80
2023-01-30T05:06:11.065Z,100833.87
2023-01-30T05:07:11.067Z,100842.82
2023-01-30T05:08:11.066Z,100843.86
2023-01-30T05:09:11.062Z,100844.79
2023-01-30T05:10:11.068Z,100842.59
2023-01-30T05:11:11.067Z,100845.09
2023-01-30T05:12:11.061Z,100840.20
2023-01-30T05:13:11.070Z,100838.71
2023-01-30T05:14:11.077Z,100836.00
2023-01-30T05:15:11.082Z,100841.66
2023-01-30T05:16:14.073Z,100840.34
2023-01-30T05:17:11.081Z,100848.05
2023-01-30T05:18:11.068Z,100846.32
2023-01-30T05:19:12.068Z,100849.64
2023-01-30T05:20:14.066Z,100849.48
2023-01-30T05:21:14.100Z,100852.45
2023-01-30T05:22:11.066Z,100852.45
2023-01-30T05:23:11.081Z,100853.20
2023-01-30T05:24:11.063Z,100851.32
2023-01-30T05:25:11.068Z,100852.04
2023-01-30T05:26:11.109Z,100852.11
2023-01-30T05:27:11.065Z,100850.47
2023-01-30T05:28:11.070Z,100850.82
2023-01-30T05:29:11.073Z,100851.84
2023-01-30T05:30:11.072Z,100850.86
2023-01-30T05:31:11.143Z,100853.14
2023-01-30T05:32:14.073Z,100853.58
2023-01-30T05:33:11.067Z,100859.85
2023-01-30T05:34:12.066Z,100861.25
2023-01-30T05:35:11.073Z,100860.16
2023-01-30T05:36:14.077Z,100859.77
2023-01-30T05:37:11.066Z,100864.61
2023-01-30T05:38:11.065Z,100867.70
2023-01-30T05:39:11.067Z,100869.81
2023-01-30T05:40:11.064Z,100867.68
2023-01-30T05:41:11.065Z,100869.87
2023-01-30T05:42:11.075Z,100869.47
2023-01-30T05:43:11.064Z,100867.86
2023-01-30T05:44:11.805Z,100876.25
2023-01-30T05:45:11.077Z,100876.34
2023-01-30T05:46:11.064Z,100877.16
2023-01-30T05:47:11.067Z,100872.53
2023-01-30T05:48:11.076Z,100870.52
2023-01-30T05:49:11.069Z,100874.06
2023-01-30T05:50:11.064Z,100876.18
2023-01-30T05:51:15.070Z,100876.62
2023-01-30T05:52:11.070Z,100879.21
2023-01-30T05:53:11.065Z,100882.71
2023-01-30T05:54:11.080Z,100885.16
2023-01-30T05:55:11.082Z,100883.94
2023-01-30T05:56:11.065Z,100883.06
2023-01-30T05:57:11.066Z,100879.76
2023-01-30T05:58:11.079Z,100880.98
2023-01-30T05:59:12.067Z,100881.04
2023-01-30T06:00:11.067Z,100876.21
2023-01-30T06:01:12.068Z,100878.99
2023-01-30T06:02:11.926Z,100875.09
2023-01-30T06:03:11.068Z,100876.78
2023-01-30T06:04:11.182Z,100877.04
2023-01-30T06:05:11.072Z,100879.48
2023-01-30T06:06:11.075Z,100885.45
2023-01-30T06:07:11.077Z,100892.66
2023-01-30T06:08:11.075Z,100893.32
2023-01-30T06:09:12.077Z,100896.52
2023-01-30T06:10:11.074Z,100897.69
2023-01-30T06:11:11.069Z,100902.49
2023-01-30T06:12:11.065Z,100903.20
2023-01-30T06:13:11.170Z,100897.46
2023-01-30T06:14:11.109Z,100903.55
2023-01-30T06:15:11.071Z,100909.18
2023-01-30T06:16:14.232Z,100909.02
2023-01-30T06:17:11.135Z,100905.49
2023-01-30T06:18:11.082Z,100913.64
2023-01-30T06:19:11.069Z,100915.47
2023-01-30T06:20:11.084Z,100915.51
2023-01-30T06:21:11.071Z,100911.32
2023-01-30T06:22:11.096Z,100919.04
2023-01-30T06:23:11.077Z,100917.10
2023-01-30T06:24:11.078Z,100917.03
2023-01-30T06:25:11.072Z,100916.87
2023-01-30T06:26:11.183Z,100913.28
2023-01-30T06:27:11.071Z,100912.24
2023-01-30T06:28:11.073Z,100913.98
2023-01-30T06:29:11.071Z,100914.97
2023-01-30T06:30:11.072Z,100911.12
2023-01-30T06:31:11.143Z,100907.08
2023-01-30T06:32:11.069Z,100909.17
2023-01-30T06:33:11.072Z,100910.92
2023-01-30T06:34:11.070Z,100910.61
2023-01-30T06:35:11.072Z,100910.31
2023-01-30T06:36:11.072Z,100919.58
2023-01-30T06:37:11.068Z,100916.31
2023-01-30T06:38:11.073Z,100917.54
2023-01-30T06:39:11.079Z,100921.08
2023-01-30T06:40:11.071Z,100921.16
2023-01-30T06:41:11.072Z,100920.63
2023-01-30T06:42:11.078Z,100919.49
2023-01-30T06:43:11.067Z,100918.18
2023-01-30T06:44:11.075Z,100920.48
2023-01-30T06:45:11.079Z,100927.36
2023-01-30T06:46:11.142Z,100925.66
2023-01-30T06:47:11.075Z,100930.48
2023-01-30T06:48:11.081Z,100935.64
2023-01-30T06:49:11.071Z,100933.86
2023-01-30T06:50:11.074Z,100935.41
2023-01-30T06:51:11.081Z,100939.18
2023-01-30T06:52:11.078Z,100944.90
2023-01-30T06:53:11.069Z,100945.41
2023-01-30T06:54:11.074Z,100950.48
2023-01-30T06:55:11.072Z,100951.90
2023-01-30T06:56:11.070Z,100956.80
2023-01-30T06:57:11.074Z,100961.08
2023-01-30T06:58:13.092Z,100958.79
2023-01-30T06:59:11.072Z,100965.56
2023-01-30T07:00:12.064Z,100963.53
2023-01-30T07:01:11.064Z,100963.07
2023-01-30T07:02:12.079Z,100971.85
2023-01-30T07:03:15.078Z,100977.27
2023-01-30T07:04:11.085Z,100978.98
2023-01-30T07:05:11.076Z,100978.91
2023-01-30T07:06:11.062Z,100983.72
2023-01-30T07:07:11.066Z,100979.90
2023-01-30T07:08:11.062Z,100980.75
2023-01-30T07:09:11.061Z,100976.07
2023-01-30T07:10:11.061Z,100975.34
2023-01-30T07:11:11.064Z,100971.41
2023-01-30T07:12:11.059Z,100972.20
2023-01-30T07:13:11.061Z,100972.57
2023-01-30T07:14:11.065Z,100973.95
2023-01-30T07:15:11.075Z,100970.32
2023-01-30T07:16:11.073Z,100963.33
2023-01-30T07:17:11.071Z,100968.16
2023-01-30T07:18:11.091Z,100965.98
2023-01-30T07:19:11.071Z,100962.02
2023-01-30T07:20:11.075Z,100962.06
2023-01-30T07:21:11.062Z,100962.28
2023-01-30T07:22:11.066Z,100962.79
2023-01-30T07:23:11.076Z,100958.49
2023-01-30T07:24:11.070Z,100961.16
2023-01-30T07:25:11.091Z,100965.47
2023-01-30T07:26:11.100Z,100963.10
2023-01-30T07:27:13.070Z,100959.78
2023-01-30T07:28:11.061Z,100963.05
2023-01-30T07:29:11.084Z,100963.41
2023-01-30T07:30:11.077Z,100961.86
2023-01-30T07:31:11.062Z,100966.88
2023-01-30T07:32:15.077Z,100971.62
2023-01-30T07:33:11.076Z,100977.16
2023-01-30T07:34:11.062Z,100980.22
2023-01-30T07:35:11.063Z,100986.73
2023-01-30T07:36:11.072Z,100990.16
2023-01-30T07:37:11.065Z,100990.43
2023-01-30T07:38:11.063Z,100991.02
2023-01-30T07:39:11.073Z,100988.60
2023-01-30T07:40:11.063Z,100995.40
2023-01-30T07:41:11.066Z,100989.88
2023-01-30T07:42:11.083Z,100997.19
2023-01-30T07:43:11.078Z,101000.00
2023-01-30T07:44:11.061Z,100999.75
2023-01-30T07:45:11.072Z,100999.23
2023-01-30T07:46:11.065Z,100998.80
2023-01-30T07:47:11.102Z,101003.79
2023-01-30T07:48:11.068Z,101007.70
2023-01-30T07:49:11.069Z,101003.52
2023-01-30T07:50:11.065Z,101006.60
2023-01-30T07:51:11.065Z,101009.60
2023-01-30T07:52:11.070Z,101006.71
2023-01-30T07:53:11.066Z,101011.84
2023-01-30T07:54:11.065Z,101021.86
2023-01-30T07:55:11.068Z,101024.37
2023-01-30T07:56:11.064Z,101032.82
2023-01-30T07:57:11.067Z,101031.65
2023-01-30T07:58:13.070Z,101034.51
2023-01-30T07:59:13.064Z,101034.25
2023-01-30T08:00:13.067Z,101040.91
2023-01-30T08:01:11.115Z,101046.61
2023-01-30T08:02:13.068Z,101044.25
2023-01-30T08:03:15.089Z,101043.11
2023-01-30T08:04:11.071Z,101043.11
2023-01-30T08:05:11.070Z,101046.68
2023-01-30T08:06:11.063Z,101051.30
2023-01-30T08:07:11.068Z,101044.30
2023-01-30T08:08:11.077Z,101044.33
2023-01-30T08:09:11.067Z,101047.10
2023-01-30T08:10:12.172Z,101044.57
2023-01-30T08:11:11.070Z,101042.26
2023-01-30T08:12:11.070Z,101046.34
2023-01-30T08:13:11.066Z,101039.67
2023-01-30T08:14:11.088Z,101045.67
2023-01-30T08:15:11.099Z,101046.82
2023-01-30T08:16:11.080Z,101047.33
2023-01-30T08:17:11.082Z,101044.34
2023-01-30T08:18:11.071Z,101050.30
2023-01-30T08:19:11.072Z,101052.39
2023-01-30T08:20:11.086Z,101055.41
2023-01-30T08:21:11.068Z,101053.36
2023-01-30T08:22:11.066Z,101057.21
2023-01-30T08:23:11.070Z,101058.15
2023-01-30T08:24:11.070Z,101061.15
2023-01-30T08:25:11.077Z,101060.07
2023-01-30T08:26:11.127Z,101060.72
2023-01-30T08:27:11.068Z,101060.89
2023-01-30T08:28:11.066Z,101062.71
2023-01-30T08:29:11.075Z,101066.91
2023-01-30T08:30:11.071Z,101069.16
2023-01-30T08:31:13.305Z,101069.57
2023-01-30T08:32:11.071Z,101076.77
2023-01-30T08:33:11.069Z,101081.56
2023-01-30T08:34:11.068Z,101084.66
2023-01-30T08:35:11.068Z,101090.69
2023-01-30T08:36:11.072Z,101089.22
2023-01-30T08:37:11.069Z,101090.79
2023-01-30T08:38:11.069Z,101088.70
2023-01-30T08:39:11.071Z,101092.29
2023-01-30T08:40:11.066Z,101087.94
2023-01-30T08:41:11.082Z,101091.75
2023-01-30T08:42:11.071Z,101092.25
2023-01-30T08:43:11.078Z,101093.35
2023-01-30T08:44:11.081Z,101094.05
2023-01-30T08:45:11.076Z,101100.63
2023-01-30T08:46:11.103Z,101100.54
2023-01-30T08:47:11.076Z,101104.05
2023-01-30T08:48:11.079Z,101102.22
2023-01-30T08:49:11.077Z,101108.55
2023-01-30T08:50:11.078Z,101111.41
2023-01-30T08:51:11.076Z,101112.34
2023-01-30T08:52:11.072Z,101111.60
2023-01-30T08:53:11.066Z,101112.45
2023-01-30T08:54:13.079Z,101112.49
2023-01-30T08:55:11.078Z,101113.30
2023-01-30T08:56:11.088Z,101112.50
2023-01-30T08:57:11.074Z,101104.11
2023-01-30T08:58:11.072Z,101106.14
2023-01-30T08:59:11.068Z,101103.74
2023-01-30T09:00:11.080Z,101104.62
2023-01-30T09:01:11.115Z,101098.12
2023-01-30T09:02:13.106Z,101101.58
2023-01-30T09:03:11.069Z,101100.97
2023-01-30T09:04:11.080Z,101101.96
2023-01-30T09:05:11.089Z,101100.62
2023-01-30T09:06:11.070Z,101103.05
2023-01-30T09:07:11.083Z,101101.54
2023-01-30T09:08:11.071Z,101101.34
2023-01-30T09:09:11.069Z,101105.45
2023-01-30T09:10:11.079Z,101112.92
2023-01-30T09:11:11.071Z,101117.00
2023-01-30T09:12:11.076Z,101113.77
2023-01-30T09:13:11.077Z,101114.31
2023-01-30T09:14:11.069Z,101115.57
2023-01-30T09:15:11.078Z,101116.25
2023-01-30T09:16:11.120Z,101121.72
2023-01-30T09:17:11.092Z,101120.93
2023-01-30T09:18:11.105Z,101121.82
2023-01-30T09:19:11.080Z,101123.80
2023-01-30T09:20:11.082Z,101124.36
2023-01-30T09:21:11.075Z,101125.19
2023-01-30T09:22:11.080Z,101122.88
2023-01-30T09:23:11.102Z,101123.16
2023-01-30T09:24:11.074Z,101121.68
2023-01-30T09:25:11.072Z,101118.87
2023-01-30T09:26:11.122Z,101118.07
2023-01-30T09:27:11.076Z,101115.83
2023-01-30T09:28:11.071Z,101115.04
2023-01-30T09:29:13.073Z,101115.07
2023-01-30T09:30:11.070Z,101113.73
2023-01-30T09:31:11.211Z,101115.53
2023-01-30T09:32:11.086Z,101118.90
2023-01-30T09:33:11.070Z,101123.14
2023-01-30T09:34:11.067Z,101125.65
2023-01-30T09:35:11.083Z,101125.80
2023-01-30T09:36:11.079Z,101129.14
2023-01-30T09:37:11.071Z,101130.97
2023-01-30T09:38:11.091Z,101135.96
2023-01-30T09:39:11.084Z,101138.71
2023-01-30T09:40:18.554Z,101138.26
2023-01-30T09:41:19.072Z,101140.89
2023-01-30T09:42:22.100Z,101139.90
2023-01-30T09:43:22.073Z,101145.48
2023-01-30T09:44:19.073Z,101143.96
2023-01-30T09:45:19.067Z,101153.71
2023-01-30T09:46:22.112Z,101151.51
2023-01-30T09:47:18.093Z,101149.86
2023-01-30T09:48:19.676Z,101154.24
2023-01-30T09:49:19.072Z,101154.58
2023-01-30T09:50:19.489Z,101156.25
2023-01-30T09:51:19.073Z,101157.56
2023-01-30T09:52:25.080Z,101159.45
2023-01-30T09:53:19.073Z,101150.46
2023-01-30T09:54:15.096Z,101153.28
2023-01-30T09:55:19.091Z,101154.59
2023-01-30T09:56:11.072Z,101156.46
2023-01-30T09:57:20.324Z,101156.84
2023-01-30T09:58:19.072Z,101157.53
2023-01-30T09:59:19.071Z,101155.58
2023-01-30T10:00:19.386Z,101155.63
2023-01-30T10:01:17.063Z,101162.57
2023-01-30T10:02:22.070Z,101161.66
2023-01-30T10:03:19.163Z,101165.38
2023-01-30T10:04:21.087Z,101167.61
2023-01-30T10:05:11.130Z,101169.88
2023-01-30T10:06:15.060Z,101174.81
2023-01-30T10:07:19.061Z,101179.66
2023-01-30T10:08:22.062Z,101186.29
2023-01-30T10:09:19.058Z,101182.68
2023-01-30T10:10:22.065Z,101188.99
2023-01-30T10:11:22.078Z,101187.24
2023-01-30T10:12:19.080Z,101193.80
2023-01-30T10:13:19.062Z,101191.70
2023-01-30T10:14:19.060Z,101193.21
2023-01-30T10:15:22.067Z,101189.44
2023-01-30T10:16:22.091Z,101192.34
2023-01-30T10:17:22.075Z,101188.49
2023-01-30T10:18:22.070Z,101191.45
2023-01-30T10:19:34.767Z,101186.84
2023-01-30T10:20:22.093Z,101182.95
2023-01-30T10:21:22.058Z,101185.40
2023-01-30T10:22:19.072Z,101179.83
2023-01-30T10:23:22.081Z,101174.40
2023-01-30T10:24:19.097Z,101177.47
2023-01-30T10:25:19.067Z,101175.80
2023-01-30T10:26:12.095Z,101174.01
2023-01-30T10:27:17.075Z,101180.38
2023-01-30T10:28:22.063Z,101177.34
2023-01-30T10:29:22.142Z,101180.27
2023-01-30T10:30:15.058Z,101181.54
2023-01-30T10:31:15.150Z,101184.63
2023-01-30T10:32:20.063Z,101184.00
2023-01-30T10:33:22.065Z,101183.48
2023-01-30T10:34:22.060Z,101183.49
2023-01-30T10:35:16.077Z,101184.81
2023-01-30T10:36:19.065Z,101181.66
2023-01-30T10:37:18.071Z,101180.56
2023-01-30T10:38:19.060Z,101177.80
2023-01-30T10:39:19.059Z,101167.94
2023-01-30T10:40:19.379Z,101173.93
2023-01-30T10:41:19.084Z,101176.40
2023-01-30T10:42:18.072Z,101177.91
2023-01-30T10:43:19.073Z,101177.05
2023-01-30T10:44:14.059Z,101180.68
2023-01-30T10:45:18.091Z,101178.99
2023-01-30T10:46:19.080Z,101178.80
2023-01-30T10:47:19.367Z,101176.01
2023-01-30T10:48:19.076Z,101181.66
2023-01-30T10:49:22.063Z,101185.42
2023-01-30T10:50:16.432Z,101190.41
2023-01-30T10:51:19.063Z,101197.48
2023-01-30T10:52:19.063Z,101193.35
2023-01-30T10:53:17.060Z,101186.52
2023-01-30T10:54:20.153Z,101180.41
2023-01-30T10:55:28.140Z,101182.05
2023-01-30T10:56:20.038Z,101186.07
2023-01-30T10:57:19.061Z,101186.04
2023-01-30T10:58:19.071Z,101185.83
2023-01-30T10:59:19.066Z,101178.33
2023-01-30T11:00:25.067Z,101175.06
2023-01-30T11:01:18.066Z,101171.50
2023-01-30T11:02:19.066Z,101170.43
2023-01-30T11:03:19.066Z,101174.02
2023-01-30T11:04:19.067Z,101173.09
2023-01-30T11:05:22.066Z,101172.72
2023-01-30T11:06:19.094Z,101174.60
2023-01-30T11:07:11.063Z,101166.11
2023-01-30T11:08:22.063Z,101165.68
2023-01-30T11:09:11.068Z,101159.16
2023-01-30T11:10:18.074Z,101161.16
2023-01-30T11:11:19.061Z,101154.76
2023-01-30T11:12:11.072Z,101148.89
2023-01-30T11:13:17.073Z,101147.20
2023-01-30T11:14:11.075Z,101144.48
2023-01-30T11:15:11.066Z,101148.47
2023-01-30T11:16:11.122Z,101141.39
2023-01-30T11:17:16.064Z,101155.55
2023-01-30T11:18:46.813Z,101143.43
2023-01-30T11:19:22.191Z,101141.30
2023-01-30T11:20:21.556Z,101132.38
2023-01-30T11:21:15.066Z,101138.94
2023-01-30T11:22:14.063Z,101137.78
2023-01-30T11:23:20.730Z,101137.53
2023-01-30T11:24:19.077Z,101128.44